CFK3 weather

CLOSED Fontas Airport
Fontas, Alberta, Canada

Public forecast

Using degrees Celsius for public forecast. Weather courtesy of forecast.io.

Closest aviation weather report (METAR) to Fontas Airport

Closest report is High Level Airport, 87.8 nm (162.6 km) NE. Retrieved 2019/10/19 19:00 UTC (11 minutes ago):

CYOJ 191900Z 35008KT 12SM -SN BKN010 OVC050 M00/M01 A2957 RMK SC5SC3 SLP034

Closest aviation forecast (TAF) to Fontas Airport

Closest forecast is High Level Airport, 87.8 nm (162.6 km) NE. Retrieved 2019/10/19 19:42 UTC (0 seconds ago):

TAF CYOJ 191838Z 1919/2007 35008KT P6SM OVC030 TEMPO 1919/2007 21/2SM -SN OVC012 RMK NXT FCST BY 200100Z